METAR AND TAF INFORMATION
METAR FOR LGSR
ADDS - METARS form results

(0636 UTC 15 September 2019)
Data provider http://aviationweather.gov/metar/data/
 
METAR text: LGSR 150620Z 36020KT CAVOK 24/14 Q1015
Conditions at: LGSR (SANTORINI ISLAND, GR) observed 0620 UTC 15 September 2019
Temperature: 24.0°C (75°F)
Dewpoint: 14.0°C (57°F) [RH = 54%]
Pressure (altimeter): 29.97 inches Hg (1015.0 mb)
Winds: from the N (360 degrees) at 23 MPH (20 knots; 10.3 m/s)
Visibility: 6 or more miles (10+ km)
Ceiling: ceiling and visibility are OK
Clouds: unknown
Weather: no significant weather observed at this time

METAR text: LGSR 150550Z 34014KT CAVOK 24/14 Q1015
Conditions at: LGSR (SANTORINI ISLAND, GR) observed 0550 UTC 15 September 2019
Temperature: 24.0°C (75°F)
Dewpoint: 14.0°C (57°F) [RH = 54%]
Pressure (altimeter): 29.97 inches Hg (1015.0 mb)
Winds: from the NNW (340 degrees) at 16 MPH (14 knots; 7.2 m/s)
Visibility: 6 or more miles (10+ km)
Ceiling: ceiling and visibility are OK
Clouds: unknown
Weather: no significant weather observed at this time

Forecast for: LGSR (SANTORINI ISLAND, GR)
Text: TAF LGSR 150500Z 1506/1606 35020G30KT 9999 FEW030
Forecast period: 0600 to 1600 UTC 15 September 2019
Forecast type: FROM: standard forecast or significant change
Winds: from the N (350 degrees) at 23 MPH (20 knots; 10.3 m/s)
gusting to 34 MPH (30 knots; 15.4 m/s)
Visibility: 6 or more miles 10+ km)
Ceiling: at least 12,000 feet AGL
Clouds: few clouds at 3000 feet AGL
Weather: no significant weather forecast for this period
Text: BECMG 1516/1518 35020KT
Forecast period: 1600 UTC 15 September 2019 to 0600 UTC 16 September 2019
Forecast type: BECOMING: Conditions expected to become as follows by 1800 UTC 15 September 2019
Winds: from the N (350 degrees) at 23 MPH (20 knots; 10.3 m/s)
Visibility: 6 or more miles 10+ km)
Ceiling: at least 12,000 feet AGL
Clouds: few clouds at 3000 feet AGL
Weather: no significant weather forecast for this period

 ΧΑΡΤΗΣ ΑΕΡΟΔΡΟΜΙΟΥ

 RUNWAY INFORMATION
Διάδρομος 16L Runway length 6972 ft Runway width 98 ft
Runway elevation 123 ft Runway displaced threshold 0 ft Runway heading 159
Διάδρομος 34R Runway length 6972 ft Runway width 98 ft
Runway elevation 53 ft Runway displaced threshold 0 ft Runway heading 339
Διάδρομος 16R Runway length 0 ft Runway width 0 ft
Runway elevation 126 ft Runway displaced threshold 0 ft Runway heading 0
Διάδρομος 34L Runway length 0 ft Runway width 0 ft
Runway elevation 57 ft Runway displaced threshold 0 ft Runway heading 0

 ΣΥΧΝΟΤΗΤΕΣ ΑΕΡΟΔΡΟΜΙΟΥ
Τύπος A/G Όνομα RDO Συχνότητα 563.7 MHZ
Τύπος APP Όνομα APP Συχνότητα 118.05 MHZ
Τύπος TWR Όνομα TWR Συχνότητα 118.05 MHZ

 AIRPORT NEAR NAVIGATION AIDS
Τύπος TACAN Όνομα Santorini Συχνότητα 116400 KHZ
Τύπος VOR-DME Όνομα Santorini Συχνότητα 110400 KHZ
Τύπος NDB Όνομα Thira Συχνότητα 307 KHZ



Hellenic Air Force Virtual - All rights reserved 2019 - Powered by VAM